createdAt,value
2023-02-24T00:00:31.587Z,9.77
2023-02-24T00:03:34.141Z,10.70
2023-02-24T00:06:43.520Z,9.23
2023-02-24T00:09:46.144Z,9.00
2023-02-24T00:12:48.514Z,9.55
2023-02-24T00:16:02.492Z,9.02
2023-02-24T00:19:06.682Z,9.40
2023-02-24T00:22:10.373Z,8.50
2023-02-24T00:25:13.794Z,8.35
2023-02-24T00:28:16.958Z,7.32
2023-02-24T00:31:19.988Z,7.00
2023-02-24T00:34:23.065Z,6.63
2023-02-24T00:37:24.397Z,6.73
2023-02-24T00:40:27.375Z,4.68
2023-02-24T00:43:29.328Z,4.68
2023-02-24T00:46:32.912Z,4.18
2023-02-24T00:49:35.389Z,3.00
2023-02-24T00:52:37.870Z,3.20
2023-02-24T00:55:39.142Z,3.20
2023-02-24T00:58:43.582Z,3.15
2023-02-24T01:01:45.478Z,3.30
2023-02-24T01:04:50.326Z,3.00
2023-02-24T01:07:51.620Z,2.87
2023-02-24T01:11:18.091Z,2.80
2023-02-24T01:14:22.841Z,2.60
2023-02-24T01:17:25.919Z,2.42
2023-02-24T01:20:29.605Z,2.60
2023-02-24T01:23:32.083Z,2.20
2023-02-24T01:26:33.587Z,1.95
2023-02-24T01:29:39.983Z,2.60
2023-02-24T01:32:42.514Z,2.13
2023-02-24T01:35:45.145Z,2.67
2023-02-24T01:38:49.842Z,1.87
2023-02-24T01:41:52.266Z,1.90
2023-02-24T01:45:14.566Z,1.48
2023-02-24T01:48:17.984Z,1.48
2023-02-24T01:51:20.466Z,1.90
2023-02-24T01:54:26.890Z,2.20
2023-02-24T01:57:31.119Z,2.13
2023-02-24T02:04:17.345Z,1.73
2023-02-24T02:07:21.404Z,1.37
2023-02-24T02:10:25.900Z,1.87
2023-02-24T02:13:28.405Z,1.75
2023-02-24T02:16:47.049Z,1.80
2023-02-24T02:20:16.511Z,1.63
2023-02-24T02:23:46.396Z,1.37
2023-02-24T02:27:11.105Z,1.67
2023-02-24T02:34:22.274Z,1.55
2023-02-24T02:37:33.836Z,1.40
2023-02-24T02:40:40.777Z,1.63
2023-02-24T02:43:50.027Z,1.40
2023-02-24T02:46:59.585Z,1.63
2023-02-24T02:50:07.717Z,1.90
2023-02-24T02:53:15.335Z,1.80
2023-02-24T02:56:19.417Z,1.40
2023-02-24T02:59:25.624Z,1.60
2023-02-24T03:02:38.706Z,1.63
2023-02-24T03:05:47.107Z,1.70
2023-02-24T03:08:54.073Z,1.02
2023-02-24T03:12:01.431Z,1.93
2023-02-24T03:15:09.975Z,1.30
2023-02-24T03:18:19.026Z,1.42
2023-02-24T03:21:32.195Z,1.70
2023-02-24T03:24:39.362Z,1.50
2023-02-24T03:27:48.462Z,1.63
2023-02-24T03:30:59.374Z,1.57
2023-02-24T03:34:07.697Z,1.17
2023-02-24T03:37:09.902Z,1.92
2023-02-24T03:40:15.397Z,1.75
2023-02-24T03:43:21.399Z,2.20
2023-02-24T03:46:24.212Z,1.60
2023-02-24T03:49:26.390Z,1.40
2023-02-24T03:52:35.829Z,1.75
2023-02-24T03:55:50.728Z,1.60
2023-02-24T03:59:04.998Z,2.13
2023-02-24T04:02:16.002Z,1.93
2023-02-24T04:05:21.436Z,1.98
2023-02-24T04:08:27.478Z,1.70
2023-02-24T04:11:36.667Z,1.80
2023-02-24T04:14:43.769Z,1.63
2023-02-24T04:17:48.034Z,1.57
2023-02-24T04:20:53.645Z,1.92
2023-02-24T04:23:57.137Z,2.15
2023-02-24T04:27:00.971Z,2.10
2023-02-24T04:30:04.540Z,2.13
2023-02-24T04:33:06.331Z,1.90
2023-02-24T04:36:09.569Z,1.90
2023-02-24T04:39:13.557Z,2.00
2023-02-24T04:42:14.981Z,2.25
2023-02-24T04:45:19.533Z,1.90
2023-02-24T04:48:20.820Z,1.80
2023-02-24T04:51:23.460Z,2.05
2023-02-24T04:54:26.891Z,1.70
2023-02-24T04:57:28.188Z,2.00
2023-02-24T05:00:36.227Z,2.10
2023-02-24T05:03:41.343Z,2.07
2023-02-24T05:06:44.997Z,1.90
2023-02-24T05:09:48.405Z,1.50
2023-02-24T05:12:49.684Z,1.40
2023-02-24T05:15:52.268Z,2.23
2023-02-24T05:19:14.133Z,1.87
2023-02-24T05:22:18.201Z,2.00
2023-02-24T05:25:21.990Z,1.73
2023-02-24T05:28:23.648Z,1.80
2023-02-24T05:31:29.034Z,1.63
2023-02-24T05:34:33.085Z,1.70
2023-02-24T05:37:38.065Z,1.30
2023-02-24T05:44:10.161Z,1.90
2023-02-24T05:47:12.970Z,1.40
2023-02-24T05:50:14.959Z,1.45
2023-02-24T05:53:16.273Z,1.52
2023-02-24T05:59:40.186Z,1.30
2023-02-24T06:02:48.646Z,1.40
2023-02-24T06:05:52.864Z,1.02
2023-02-24T06:08:54.605Z,1.23
2023-02-24T06:11:57.913Z,1.23
2023-02-24T06:14:59.606Z,1.13
2023-02-24T06:18:02.419Z,1.23
2023-02-24T06:21:04.507Z,1.50
2023-02-24T06:24:09.954Z,1.20
2023-02-24T06:27:16.912Z,1.30
2023-02-24T06:30:18.780Z,1.33
2023-02-24T06:33:22.899Z,1.23
2023-02-24T06:36:24.223Z,1.50
2023-02-24T06:39:27.040Z,1.55
2023-02-24T06:42:29.025Z,1.05
2023-02-24T06:45:31.372Z,1.30
2023-02-24T06:48:34.701Z,1.17
2023-02-24T06:51:36.184Z,1.23
2023-02-24T06:54:38.914Z,1.45
2023-02-24T06:57:43.176Z,1.13
2023-02-24T07:00:55.927Z,1.57
2023-02-24T07:07:40.449Z,1.30
2023-02-24T07:10:43.018Z,1.35
2023-02-24T07:13:47.181Z,1.50
2023-02-24T07:16:53.304Z,1.77
2023-02-24T07:19:54.717Z,1.40
2023-02-24T07:22:57.305Z,1.10
2023-02-24T07:25:59.865Z,1.33
2023-02-24T07:29:05.622Z,1.35
2023-02-24T07:32:09.820Z,1.57
2023-02-24T07:35:11.237Z,1.00
2023-02-24T07:38:34.298Z,1.38
2023-02-24T07:41:36.654Z,1.30
2023-02-24T07:44:40.180Z,1.65
2023-02-24T07:47:41.489Z,1.60
2023-02-24T07:50:44.067Z,1.70
2023-02-24T07:53:52.027Z,1.50
2023-02-24T07:56:57.257Z,2.00
2023-02-24T07:59:59.546Z,1.67
2023-02-24T08:03:02.272Z,2.10
2023-02-24T08:06:15.940Z,1.60
2023-02-24T08:09:20.359Z,1.63
2023-02-24T08:15:45.790Z,1.73
2023-02-24T08:18:48.424Z,1.73
2023-02-24T08:21:59.390Z,1.33
2023-02-24T08:31:49.558Z,1.20
2023-02-24T08:34:55.974Z,1.80
2023-02-24T08:38:03.693Z,1.50
2023-02-24T08:41:06.146Z,1.45
2023-02-24T08:44:10.617Z,2.13
2023-02-24T08:47:13.497Z,2.10
2023-02-24T08:53:39.642Z,1.83
2023-02-24T08:56:44.262Z,1.83
2023-02-24T08:59:50.474Z,2.10
2023-02-24T09:02:55.446Z,2.30
2023-02-24T09:05:58.854Z,2.23
2023-02-24T09:09:19.188Z,1.83
2023-02-24T09:12:24.069Z,1.90
2023-02-24T09:15:41.751Z,1.88
2023-02-24T09:18:44.318Z,1.60
2023-02-24T09:22:16.516Z,2.00
2023-02-24T09:28:48.837Z,1.60
2023-02-24T09:31:55.891Z,2.03
2023-02-24T09:34:57.838Z,1.65
2023-02-24T09:38:01.069Z,2.20
2023-02-24T09:41:18.250Z,1.57
2023-02-24T09:44:34.047Z,1.60
2023-02-24T09:47:50.432Z,1.70
2023-02-24T09:51:05.003Z,1.30
2023-02-24T09:54:15.980Z,1.80
2023-02-24T09:57:25.955Z,1.80
2023-02-24T10:00:34.056Z,1.40
2023-02-24T10:03:47.226Z,2.08
2023-02-24T10:10:19.429Z,2.00
2023-02-24T10:13:31.684Z,1.40
2023-02-24T10:16:44.847Z,1.40
2023-02-24T10:19:55.621Z,1.05
2023-02-24T10:26:33.215Z,1.40
2023-02-24T10:29:50.063Z,1.27
2023-02-24T10:32:58.389Z,1.40
2023-02-24T10:36:10.969Z,1.33
2023-02-24T10:39:16.200Z,1.50
2023-02-24T10:42:25.259Z,1.90
2023-02-24T10:45:34.707Z,1.10
2023-02-24T10:48:41.656Z,1.27
2023-02-24T10:51:50.576Z,1.38
2023-02-24T10:55:04.517Z,1.35
2023-02-24T10:58:08.470Z,1.80
2023-02-24T11:01:20.090Z,1.20
2023-02-24T11:04:54.501Z,1.10
2023-02-24T11:08:08.773Z,1.08
2023-02-24T11:11:24.825Z,1.40
2023-02-24T11:14:45.346Z,1.67
2023-02-24T11:17:53.765Z,1.53
2023-02-24T11:20:58.443Z,1.50
2023-02-24T11:24:01.936Z,1.23
2023-02-24T11:27:05.443Z,1.48
2023-02-24T11:30:25.827Z,1.50
2023-02-24T11:33:34.288Z,1.90
2023-02-24T11:36:45.949Z,1.80
2023-02-24T11:39:55.285Z,1.90
2023-02-24T11:43:02.696Z,2.15
2023-02-24T11:46:11.065Z,1.93
2023-02-24T11:49:27.079Z,1.90
2023-02-24T11:52:33.503Z,1.80
2023-02-24T11:55:42.946Z,2.00
2023-02-24T11:58:52.484Z,2.00
2023-02-24T12:02:02.950Z,1.90
2023-02-24T12:05:12.201Z,2.00
2023-02-24T12:08:24.012Z,1.70
2023-02-24T12:11:35.856Z,1.90
2023-02-24T12:14:40.528Z,1.40
2023-02-24T12:17:50.351Z,1.90
2023-02-24T12:20:58.683Z,1.70
2023-02-24T12:24:01.506Z,1.50
2023-02-24T12:27:15.044Z,1.70
2023-02-24T12:30:49.238Z,1.50
2023-02-24T12:34:00.705Z,1.40
2023-02-24T12:37:19.404Z,1.60
2023-02-24T12:40:34.995Z,1.40
2023-02-24T12:43:45.569Z,1.70
2023-02-24T12:46:54.728Z,1.58
2023-02-24T12:50:28.722Z,1.70
2023-02-24T12:53:37.096Z,1.40
2023-02-24T13:00:12.282Z,1.88
2023-02-24T13:06:57.470Z,1.60
2023-02-24T13:10:11.660Z,1.40
2023-02-24T13:13:20.596Z,1.50
2023-02-24T13:16:28.771Z,1.70
2023-02-24T13:19:32.552Z,1.50
2023-02-24T13:22:33.938Z,1.60
2023-02-24T13:25:37.162Z,1.90
2023-02-24T13:28:38.768Z,2.08
2023-02-24T13:31:42.854Z,2.00
2023-02-24T13:38:24.098Z,1.83
2023-02-24T13:41:41.202Z,1.60
2023-02-24T13:44:49.459Z,1.40
2023-02-24T13:48:10.910Z,1.70
2023-02-24T13:51:29.740Z,1.50
2023-02-24T13:54:55.425Z,1.38
2023-02-24T13:58:09.326Z,1.88
2023-02-24T14:01:14.150Z,1.60
2023-02-24T14:04:18.872Z,1.70
2023-02-24T14:07:23.325Z,1.70
2023-02-24T14:10:28.410Z,1.80
2023-02-24T14:13:33.386Z,2.00
2023-02-24T14:20:19.172Z,2.03
2023-02-24T14:23:23.969Z,1.73
2023-02-24T14:26:25.629Z,1.98
2023-02-24T14:29:31.190Z,2.08
2023-02-24T14:32:34.008Z,2.10
2023-02-24T14:35:42.677Z,2.40
2023-02-24T14:38:44.982Z,2.07
2023-02-24T14:41:49.126Z,1.92
2023-02-24T14:44:52.309Z,2.22
2023-02-24T14:47:56.660Z,2.40
2023-02-24T14:51:02.185Z,2.57
2023-02-24T14:54:09.590Z,2.30
2023-02-24T14:57:15.336Z,2.80
2023-02-24T15:00:23.163Z,2.35
2023-02-24T15:03:28.830Z,2.55
2023-02-24T15:06:41.217Z,2.33
2023-02-24T15:09:46.054Z,1.93
2023-02-24T15:12:52.854Z,2.78
2023-02-24T15:15:56.291Z,2.33
2023-02-24T15:19:01.626Z,2.28
2023-02-24T15:22:03.702Z,2.13
2023-02-24T15:25:19.109Z,2.23
2023-02-24T15:28:25.580Z,2.58
2023-02-24T15:31:29.791Z,2.55
2023-02-24T15:34:34.432Z,2.80
2023-02-24T15:37:42.418Z,2.20
2023-02-24T15:40:53.689Z,2.50
2023-02-24T15:43:55.617Z,2.40
2023-02-24T15:47:00.683Z,3.30
2023-02-24T15:50:03.367Z,2.20
2023-02-24T15:53:04.684Z,2.40
2023-02-24T15:56:07.913Z,2.00
2023-02-24T15:59:23.258Z,2.25
2023-02-24T16:02:25.148Z,2.50
2023-02-24T16:05:26.540Z,2.33
2023-02-24T16:08:29.699Z,3.53
2023-02-24T16:11:37.254Z,3.57
2023-02-24T16:14:40.189Z,3.22
2023-02-24T16:17:43.424Z,2.85
2023-02-24T16:20:49.297Z,4.60
2023-02-24T16:23:50.604Z,2.67
2023-02-24T16:26:52.653Z,2.90
2023-02-24T16:29:54.047Z,3.70
2023-02-24T16:32:57.256Z,3.22
2023-02-24T16:35:58.668Z,5.13
2023-02-24T16:39:00.424Z,3.40
2023-02-24T16:42:07.445Z,4.30
2023-02-24T16:45:10.565Z,3.85
2023-02-24T16:48:15.811Z,3.88
2023-02-24T16:51:17.151Z,3.80
2023-02-24T16:54:21.788Z,3.93
2023-02-24T16:57:24.838Z,4.37
2023-02-24T17:00:26.728Z,4.15
2023-02-24T17:03:34.678Z,4.30
2023-02-24T17:06:36.047Z,4.18
2023-02-24T17:09:38.610Z,4.40
2023-02-24T17:12:40.610Z,4.40
2023-02-24T17:15:43.311Z,4.40
2023-02-24T17:18:45.005Z,4.78
2023-02-24T17:21:47.545Z,5.03
2023-02-24T17:24:50.639Z,5.10
2023-02-24T17:27:55.071Z,5.57
2023-02-24T17:30:56.653Z,5.80
2023-02-24T17:37:18.946Z,6.22
2023-02-24T17:40:22.096Z,6.57
2023-02-24T17:43:24.091Z,6.05
2023-02-24T17:46:26.923Z,6.70
2023-02-24T17:49:29.642Z,7.17
2023-02-24T17:52:32.746Z,6.38
2023-02-24T17:55:34.026Z,6.30
2023-02-24T17:58:37.894Z,6.22
2023-02-24T18:01:39.324Z,6.50
2023-02-24T18:04:41.322Z,6.77
2023-02-24T18:07:42.645Z,6.70
2023-02-24T18:10:45.112Z,6.90
2023-02-24T18:17:11.004Z,7.67
2023-02-24T18:20:14.722Z,7.57
2023-02-24T18:23:17.414Z,7.38
2023-02-24T18:26:18.806Z,8.48
2023-02-24T18:29:22.002Z,7.88
2023-02-24T18:32:23.583Z,9.03
2023-02-24T18:35:26.445Z,8.00
2023-02-24T18:38:28.358Z,8.18
2023-02-24T18:41:31.098Z,8.35
2023-02-24T18:44:34.442Z,8.77
2023-02-24T18:47:35.846Z,8.60
2023-02-24T18:50:37.242Z,8.60
2023-02-24T18:53:38.690Z,9.77
2023-02-24T18:56:41.925Z,8.35
2023-02-24T18:59:44.326Z,9.15
2023-02-24T19:02:46.613Z,9.10
2023-02-24T19:05:49.407Z,9.23
2023-02-24T19:08:56.066Z,9.15
2023-02-24T19:11:58.676Z,9.57
2023-02-24T19:15:00.780Z,9.40
2023-02-24T19:18:03.387Z,9.07
2023-02-24T19:21:06.604Z,9.53
2023-02-24T19:24:10.626Z,9.70
2023-02-24T19:27:11.954Z,9.32
2023-02-24T19:30:14.575Z,9.00
2023-02-24T19:33:15.984Z,9.97
2023-02-24T19:36:18.517Z,9.37
2023-02-24T19:39:19.783Z,9.80
2023-02-24T19:42:21.168Z,9.27
2023-02-24T19:45:24.461Z,9.98
2023-02-24T19:48:25.794Z,11.07
2023-02-24T19:51:28.527Z,10.13
2023-02-24T19:54:29.809Z,9.88
2023-02-24T20:00:51.986Z,9.43
2023-02-24T20:03:55.617Z,10.77
2023-02-24T20:10:18.361Z,10.25
2023-02-24T20:13:19.667Z,9.93
2023-02-24T20:16:24.385Z,9.32
2023-02-24T20:19:27.141Z,10.13
2023-02-24T20:22:29.682Z,9.65
2023-02-24T20:25:31.000Z,9.93
2023-02-24T20:28:32.489Z,9.67
2023-02-24T20:31:34.720Z,8.95
2023-02-24T20:34:38.189Z,10.10
2023-02-24T20:37:39.517Z,9.98
2023-02-24T20:40:42.627Z,10.43
2023-02-24T20:43:44.002Z,9.80
2023-02-24T20:46:47.655Z,10.43
2023-02-24T20:53:11.372Z,9.75
2023-02-24T20:56:18.503Z,9.63
2023-02-24T20:59:22.517Z,9.47
2023-02-24T21:02:24.521Z,9.13
2023-02-24T21:08:50.260Z,10.55
2023-02-24T21:11:51.554Z,9.60
2023-02-24T21:14:54.054Z,9.40
2023-02-24T21:17:56.000Z,9.57
2023-02-24T21:20:58.587Z,9.63
2023-02-24T21:23:59.839Z,10.23
2023-02-24T21:27:02.419Z,10.50
2023-02-24T21:30:05.909Z,9.53
2023-02-24T21:33:09.800Z,10.32
2023-02-24T21:36:15.886Z,10.60
2023-02-24T21:39:18.922Z,9.88
2023-02-24T21:42:21.463Z,9.40
2023-02-24T21:45:24.033Z,9.60
2023-02-24T21:48:25.957Z,9.63
2023-02-24T21:51:29.706Z,9.85
2023-02-24T21:54:31.410Z,9.33
2023-02-24T21:57:41.092Z,9.30
2023-02-24T22:00:42.522Z,9.05
2023-02-24T22:03:46.463Z,8.73
2023-02-24T22:06:47.813Z,8.32
2023-02-24T22:09:49.590Z,8.63
2023-02-24T22:12:55.374Z,8.03
2023-02-24T22:15:59.526Z,7.60
2023-02-24T22:19:01.521Z,6.97
2023-02-24T22:22:04.577Z,6.88
2023-02-24T22:25:09.546Z,6.97
2023-02-24T22:28:12.120Z,6.77
2023-02-24T22:31:16.541Z,6.28
2023-02-24T22:34:19.936Z,6.30
2023-02-24T22:37:21.267Z,5.97
2023-02-24T22:40:23.814Z,5.30
2023-02-24T22:43:26.776Z,5.63
2023-02-24T22:46:30.528Z,5.30
2023-02-24T22:49:33.760Z,5.30
2023-02-24T22:52:35.316Z,5.38
2023-02-24T22:55:38.145Z,5.57
2023-02-24T22:58:41.518Z,4.20
2023-02-24T23:01:43.568Z,4.10
2023-02-24T23:04:46.797Z,3.70
2023-02-24T23:07:48.129Z,3.50
2023-02-24T23:10:51.071Z,4.07
2023-02-24T23:13:53.610Z,3.40
2023-02-24T23:16:54.935Z,3.20
2023-02-24T23:23:19.815Z,2.80
2023-02-24T23:26:22.642Z,3.07
2023-02-24T23:29:25.776Z,2.30
2023-02-24T23:32:28.714Z,2.85
2023-02-24T23:35:32.016Z,2.30
2023-02-24T23:38:33.706Z,2.38
2023-02-24T23:44:57.860Z,1.83
2023-02-24T23:47:59.217Z,1.98
2023-02-24T23:51:04.092Z,1.70
2023-02-24T23:54:06.659Z,1.90
2023-02-24T23:57:07.973Z,2.27
